sensor_id;sensor_type;location;lat;lon;timestamp;temperature;humidity
18177;DHT22;9213;50.858;3.964;2023-08-24T00:00:33;25.00;49.20
18177;DHT22;9213;50.858;3.964;2023-08-24T00:03:02;25.00;49.40
18177;DHT22;9213;50.858;3.964;2023-08-24T00:05:32;25.00;49.50
18177;DHT22;9213;50.858;3.964;2023-08-24T00:07:59;25.00;49.40
18177;DHT22;9213;50.858;3.964;2023-08-24T00:10:26;24.90;49.40
18177;DHT22;9213;50.858;3.964;2023-08-24T00:12:53;24.90;49.20
18177;DHT22;9213;50.858;3.964;2023-08-24T00:15:20;24.90;49.50
18177;DHT22;9213;50.858;3.964;2023-08-24T00:17:46;24.90;49.20
18177;DHT22;9213;50.858;3.964;2023-08-24T00:20:15;24.90;49.60
18177;DHT22;9213;50.858;3.964;2023-08-24T00:22:42;24.90;49.60
18177;DHT22;9213;50.858;3.964;2023-08-24T00:25:09;24.90;49.60
18177;DHT22;9213;50.858;3.964;2023-08-24T00:27:36;24.90;49.80
18177;DHT22;9213;50.858;3.964;2023-08-24T00:30:05;24.90;49.60
18177;DHT22;9213;50.858;3.964;2023-08-24T00:32:33;24.90;49.50
18177;DHT22;9213;50.858;3.964;2023-08-24T00:35:00;24.90;49.30
18177;DHT22;9213;50.858;3.964;2023-08-24T00:37:28;24.80;49.40
18177;DHT22;9213;50.858;3.964;2023-08-24T00:39:55;24.80;49.60
18177;DHT22;9213;50.858;3.964;2023-08-24T00:42:23;24.80;49.60
18177;DHT22;9213;50.858;3.964;2023-08-24T00:44:50;24.80;49.90
18177;DHT22;9213;50.858;3.964;2023-08-24T00:47:17;24.90;49.90
18177;DHT22;9213;50.858;3.964;2023-08-24T00:49:44;24.90;49.80
18177;DHT22;9213;50.858;3.964;2023-08-24T00:52:11;24.90;49.50
18177;DHT22;9213;50.858;3.964;2023-08-24T00:54:41;24.90;49.40
18177;DHT22;9213;50.858;3.964;2023-08-24T00:57:08;24.90;49.30
18177;DHT22;9213;50.858;3.964;2023-08-24T00:59:36;24.90;49.40
18177;DHT22;9213;50.858;3.964;2023-08-24T01:02:03;24.90;49.20
18177;DHT22;9213;50.858;3.964;2023-08-24T01:04:30;24.90;49.40
18177;DHT22;9213;50.858;3.964;2023-08-24T01:06:56;24.90;49.50
18177;DHT22;9213;50.858;3.964;2023-08-24T01:09:24;24.90;49.70
18177;DHT22;9213;50.858;3.964;2023-08-24T01:11:59;24.90;49.70
18177;DHT22;9213;50.858;3.964;2023-08-24T01:14:34;24.90;49.90
18177;DHT22;9213;50.858;3.964;2023-08-24T01:17:04;24.90;49.90
18177;DHT22;9213;50.858;3.964;2023-08-24T01:19:37;24.90;49.90
18177;DHT22;9213;50.858;3.964;2023-08-24T01:22:14;24.90;49.60
18177;DHT22;9213;50.858;3.964;2023-08-24T01:24:49;24.90;49.40
18177;DHT22;9213;50.858;3.964;2023-08-24T01:27:20;24.90;49.40
18177;DHT22;9213;50.858;3.964;2023-08-24T01:29:49;24.90;49.40
18177;DHT22;9213;50.858;3.964;2023-08-24T01:32:18;24.90;49.70
18177;DHT22;9213;50.858;3.964;2023-08-24T01:34:45;24.90;49.80
18177;DHT22;9213;50.858;3.964;2023-08-24T01:37:12;24.90;50.20
18177;DHT22;9213;50.858;3.964;2023-08-24T01:39:43;24.80;50.70
18177;DHT22;9213;50.858;3.964;2023-08-24T01:42:15;24.80;51.20
18177;DHT22;9213;50.858;3.964;2023-08-24T01:44:50;24.80;51.40
18177;DHT22;9213;50.858;3.964;2023-08-24T01:47:19;24.80;51.40
18177;DHT22;9213;50.858;3.964;2023-08-24T01:49:48;24.70;51.90
18177;DHT22;9213;50.858;3.964;2023-08-24T01:52:15;24.70;51.80
18177;DHT22;9213;50.858;3.964;2023-08-24T01:54:43;24.60;52.10
18177;DHT22;9213;50.858;3.964;2023-08-24T01:57:10;24.50;52.00
18177;DHT22;9213;50.858;3.964;2023-08-24T01:59:37;24.40;52.40
18177;DHT22;9213;50.858;3.964;2023-08-24T02:02:06;24.30;52.80
18177;DHT22;9213;50.858;3.964;2023-08-24T02:04:32;24.20;53.20
18177;DHT22;9213;50.858;3.964;2023-08-24T02:06:59;24.10;53.60
18177;DHT22;9213;50.858;3.964;2023-08-24T02:09:26;24.10;54.00
18177;DHT22;9213;50.858;3.964;2023-08-24T02:11:53;24.00;54.10
18177;DHT22;9213;50.858;3.964;2023-08-24T02:14:20;24.00;54.20
18177;DHT22;9213;50.858;3.964;2023-08-24T02:16:47;24.00;54.30
18177;DHT22;9213;50.858;3.964;2023-08-24T02:19:15;23.90;54.10
18177;DHT22;9213;50.858;3.964;2023-08-24T02:21:42;23.90;54.30
18177;DHT22;9213;50.858;3.964;2023-08-24T02:24:09;23.80;54.10
18177;DHT22;9213;50.858;3.964;2023-08-24T02:26:36;23.80;54.60
18177;DHT22;9213;50.858;3.964;2023-08-24T02:29:03;23.80;54.80
18177;DHT22;9213;50.858;3.964;2023-08-24T02:31:30;23.80;54.70
18177;DHT22;9213;50.858;3.964;2023-08-24T02:33:57;23.80;54.90
18177;DHT22;9213;50.858;3.964;2023-08-24T02:36:25;23.80;55.00
18177;DHT22;9213;50.858;3.964;2023-08-24T02:38:53;23.80;55.10
18177;DHT22;9213;50.858;3.964;2023-08-24T02:41:20;23.80;55.00
18177;DHT22;9213;50.858;3.964;2023-08-24T02:43:47;23.80;55.00
18177;DHT22;9213;50.858;3.964;2023-08-24T02:46:13;23.80;55.10
18177;DHT22;9213;50.858;3.964;2023-08-24T02:48:40;23.80;55.10
18177;DHT22;9213;50.858;3.964;2023-08-24T02:51:08;23.80;55.10
18177;DHT22;9213;50.858;3.964;2023-08-24T02:53:36;23.70;56.00
18177;DHT22;9213;50.858;3.964;2023-08-24T02:56:03;23.70;55.10
18177;DHT22;9213;50.858;3.964;2023-08-24T02:58:31;23.70;55.20
18177;DHT22;9213;50.858;3.964;2023-08-24T03:01:03;23.60;55.10
18177;DHT22;9213;50.858;3.964;2023-08-24T03:03:30;23.60;55.10
18177;DHT22;9213;50.858;3.964;2023-08-24T03:05:58;23.60;55.10
18177;DHT22;9213;50.858;3.964;2023-08-24T03:08:26;23.50;55.10
18177;DHT22;9213;50.858;3.964;2023-08-24T03:10:54;23.50;55.10
18177;DHT22;9213;50.858;3.964;2023-08-24T03:13:21;23.50;55.20
18177;DHT22;9213;50.858;3.964;2023-08-24T03:15:48;23.40;55.20
18177;DHT22;9213;50.858;3.964;2023-08-24T03:18:16;23.40;55.10
18177;DHT22;9213;50.858;3.964;2023-08-24T03:20:43;23.40;55.30
18177;DHT22;9213;50.858;3.964;2023-08-24T03:23:10;23.40;55.40
18177;DHT22;9213;50.858;3.964;2023-08-24T03:25:39;23.30;55.40
18177;DHT22;9213;50.858;3.964;2023-08-24T03:28:08;23.40;55.60
18177;DHT22;9213;50.858;3.964;2023-08-24T03:30:37;23.40;55.40
18177;DHT22;9213;50.858;3.964;2023-08-24T03:33:04;23.30;55.50
18177;DHT22;9213;50.858;3.964;2023-08-24T03:35:32;23.30;55.40
18177;DHT22;9213;50.858;3.964;2023-08-24T03:37:59;23.30;55.50
18177;DHT22;9213;50.858;3.964;2023-08-24T03:40:26;23.30;55.50
18177;DHT22;9213;50.858;3.964;2023-08-24T03:42:53;23.30;55.50
18177;DHT22;9213;50.858;3.964;2023-08-24T03:45:22;23.30;55.60
18177;DHT22;9213;50.858;3.964;2023-08-24T03:47:49;23.30;55.60
18177;DHT22;9213;50.858;3.964;2023-08-24T03:50:16;23.20;55.30
18177;DHT22;9213;50.858;3.964;2023-08-24T03:52:43;23.20;55.30
18177;DHT22;9213;50.858;3.964;2023-08-24T03:55:10;23.20;55.60
18177;DHT22;9213;50.858;3.964;2023-08-24T03:57:37;23.20;55.50
18177;DHT22;9213;50.858;3.964;2023-08-24T04:00:06;23.20;55.50
18177;DHT22;9213;50.858;3.964;2023-08-24T04:02:38;23.20;55.60
18177;DHT22;9213;50.858;3.964;2023-08-24T04:05:05;23.20;55.60
18177;DHT22;9213;50.858;3.964;2023-08-24T04:07:32;23.10;55.50
18177;DHT22;9213;50.858;3.964;2023-08-24T04:10:02;23.10;55.50
18177;DHT22;9213;50.858;3.964;2023-08-24T04:12:30;23.10;55.50
18177;DHT22;9213;50.858;3.964;2023-08-24T04:14:57;23.10;55.70
18177;DHT22;9213;50.858;3.964;2023-08-24T04:17:24;23.10;55.80
18177;DHT22;9213;50.858;3.964;2023-08-24T04:19:52;23.00;55.70
18177;DHT22;9213;50.858;3.964;2023-08-24T04:22:19;23.00;55.70
18177;DHT22;9213;50.858;3.964;2023-08-24T04:24:46;23.00;55.80
18177;DHT22;9213;50.858;3.964;2023-08-24T04:27:14;23.00;55.80
18177;DHT22;9213;50.858;3.964;2023-08-24T04:29:41;23.00;55.90
18177;DHT22;9213;50.858;3.964;2023-08-24T04:32:08;23.00;55.90
18177;DHT22;9213;50.858;3.964;2023-08-24T04:34:35;23.00;56.00
18177;DHT22;9213;50.858;3.964;2023-08-24T04:37:03;23.00;56.00
18177;DHT22;9213;50.858;3.964;2023-08-24T04:39:30;23.00;55.90
18177;DHT22;9213;50.858;3.964;2023-08-24T04:41:57;23.00;55.80
18177;DHT22;9213;50.858;3.964;2023-08-24T04:44:24;22.90;55.90
18177;DHT22;9213;50.858;3.964;2023-08-24T04:46:51;22.90;56.00
18177;DHT22;9213;50.858;3.964;2023-08-24T04:49:18;22.90;56.10
18177;DHT22;9213;50.858;3.964;2023-08-24T04:51:45;22.90;56.00
18177;DHT22;9213;50.858;3.964;2023-08-24T04:54:13;22.90;56.00
18177;DHT22;9213;50.858;3.964;2023-08-24T04:56:40;22.90;56.20
18177;DHT22;9213;50.858;3.964;2023-08-24T04:59:07;22.90;56.10
18177;DHT22;9213;50.858;3.964;2023-08-24T05:01:34;22.90;56.10
18177;DHT22;9213;50.858;3.964;2023-08-24T05:04:01;22.90;56.10
18177;DHT22;9213;50.858;3.964;2023-08-24T05:06:28;22.90;56.00
18177;DHT22;9213;50.858;3.964;2023-08-24T05:08:55;22.90;55.90
18177;DHT22;9213;50.858;3.964;2023-08-24T05:11:26;22.80;55.80
18177;DHT22;9213;50.858;3.964;2023-08-24T05:13:54;22.90;56.00
18177;DHT22;9213;50.858;3.964;2023-08-24T05:16:21;22.90;55.90
18177;DHT22;9213;50.858;3.964;2023-08-24T05:18:48;22.90;56.10
18177;DHT22;9213;50.858;3.964;2023-08-24T05:21:15;23.00;55.80
18177;DHT22;9213;50.858;3.964;2023-08-24T05:23:42;23.00;55.80
18177;DHT22;9213;50.858;3.964;2023-08-24T05:26:09;23.10;55.80
18177;DHT22;9213;50.858;3.964;2023-08-24T05:28:37;23.10;55.70
18177;DHT22;9213;50.858;3.964;2023-08-24T05:31:04;23.10;55.60
18177;DHT22;9213;50.858;3.964;2023-08-24T05:33:31;23.20;55.40
18177;DHT22;9213;50.858;3.964;2023-08-24T05:35:58;23.20;55.30
18177;DHT22;9213;50.858;3.964;2023-08-24T05:38:25;23.30;55.30
18177;DHT22;9213;50.858;3.964;2023-08-24T05:40:52;23.30;55.30
18177;DHT22;9213;50.858;3.964;2023-08-24T05:43:19;23.40;55.20
18177;DHT22;9213;50.858;3.964;2023-08-24T05:45:48;23.40;55.20
18177;DHT22;9213;50.858;3.964;2023-08-24T05:48:15;23.50;55.20
18177;DHT22;9213;50.858;3.964;2023-08-24T05:50:46;23.50;55.00
18177;DHT22;9213;50.858;3.964;2023-08-24T05:53:13;23.60;54.90
18177;DHT22;9213;50.858;3.964;2023-08-24T05:55:40;23.60;54.80
18177;DHT22;9213;50.858;3.964;2023-08-24T05:58:07;23.60;54.90
18177;DHT22;9213;50.858;3.964;2023-08-24T06:00:34;23.70;55.20
18177;DHT22;9213;50.858;3.964;2023-08-24T06:03:03;23.70;55.20
18177;DHT22;9213;50.858;3.964;2023-08-24T06:05:31;23.80;55.00
18177;DHT22;9213;50.858;3.964;2023-08-24T06:07:58;23.90;54.60
18177;DHT22;9213;50.858;3.964;2023-08-24T06:10:24;23.90;54.40
18177;DHT22;9213;50.858;3.964;2023-08-24T06:12:52;23.90;54.30
18177;DHT22;9213;50.858;3.964;2023-08-24T06:15:19;23.90;54.50
18177;DHT22;9213;50.858;3.964;2023-08-24T06:17:49;23.90;54.80
18177;DHT22;9213;50.858;3.964;2023-08-24T06:20:18;24.10;54.90
18177;DHT22;9213;50.858;3.964;2023-08-24T06:22:45;24.20;54.90
18177;DHT22;9213;50.858;3.964;2023-08-24T06:25:12;24.40;54.70
18177;DHT22;9213;50.858;3.964;2023-08-24T06:27:40;24.70;54.30
18177;DHT22;9213;50.858;3.964;2023-08-24T06:30:07;24.90;53.60
18177;DHT22;9213;50.858;3.964;2023-08-24T06:32:34;25.10;53.10
18177;DHT22;9213;50.858;3.964;2023-08-24T06:35:02;25.20;52.60
18177;DHT22;9213;50.858;3.964;2023-08-24T06:37:31;25.40;52.10
18177;DHT22;9213;50.858;3.964;2023-08-24T06:39:58;25.50;52.20
18177;DHT22;9213;50.858;3.964;2023-08-24T06:42:25;25.70;51.80
18177;DHT22;9213;50.858;3.964;2023-08-24T06:44:52;25.80;51.30
18177;DHT22;9213;50.858;3.964;2023-08-24T06:47:19;26.00;51.60
18177;DHT22;9213;50.858;3.964;2023-08-24T06:49:46;26.20;51.10
18177;DHT22;9213;50.858;3.964;2023-08-24T06:52:13;26.40;50.50
18177;DHT22;9213;50.858;3.964;2023-08-24T06:54:41;26.60;49.70
18177;DHT22;9213;50.858;3.964;2023-08-24T06:57:08;26.70;49.20
18177;DHT22;9213;50.858;3.964;2023-08-24T06:59:35;26.90;49.10
18177;DHT22;9213;50.858;3.964;2023-08-24T07:02:02;27.10;48.90
18177;DHT22;9213;50.858;3.964;2023-08-24T07:04:29;27.40;47.80
18177;DHT22;9213;50.858;3.964;2023-08-24T07:06:57;27.60;47.00
18177;DHT22;9213;50.858;3.964;2023-08-24T07:09:24;27.90;46.10
18177;DHT22;9213;50.858;3.964;2023-08-24T07:11:52;28.10;45.80
18177;DHT22;9213;50.858;3.964;2023-08-24T07:14:19;28.20;45.40
18177;DHT22;9213;50.858;3.964;2023-08-24T07:16:46;28.20;45.40
18177;DHT22;9213;50.858;3.964;2023-08-24T07:19:13;28.10;45.50
18177;DHT22;9213;50.858;3.964;2023-08-24T07:21:40;28.00;45.70
18177;DHT22;9213;50.858;3.964;2023-08-24T07:24:07;27.90;45.60
18177;DHT22;9213;50.858;3.964;2023-08-24T07:26:34;27.80;46.40
18177;DHT22;9213;50.858;3.964;2023-08-24T07:29:02;27.80;46.80
18177;DHT22;9213;50.858;3.964;2023-08-24T07:31:29;27.70;46.80
18177;DHT22;9213;50.858;3.964;2023-08-24T07:33:56;27.60;47.30
18177;DHT22;9213;50.858;3.964;2023-08-24T07:36:24;27.50;47.60
18177;DHT22;9213;50.858;3.964;2023-08-24T07:38:51;27.40;47.80
18177;DHT22;9213;50.858;3.964;2023-08-24T07:41:18;27.40;48.10
18177;DHT22;9213;50.858;3.964;2023-08-24T07:43:45;27.30;48.40
18177;DHT22;9213;50.858;3.964;2023-08-24T07:46:13;27.20;48.30
18177;DHT22;9213;50.858;3.964;2023-08-24T07:48:40;27.20;49.00
18177;DHT22;9213;50.858;3.964;2023-08-24T07:51:07;27.10;49.20
18177;DHT22;9213;50.858;3.964;2023-08-24T07:53:34;27.00;49.80
18177;DHT22;9213;50.858;3.964;2023-08-24T07:56:02;27.00;49.90
18177;DHT22;9213;50.858;3.964;2023-08-24T07:58:29;26.90;49.50
18177;DHT22;9213;50.858;3.964;2023-08-24T08:00:57;26.90;49.60
18177;DHT22;9213;50.858;3.964;2023-08-24T08:03:25;26.90;50.20
18177;DHT22;9213;50.858;3.964;2023-08-24T08:05:52;26.90;50.20
18177;DHT22;9213;50.858;3.964;2023-08-24T08:08:20;26.90;50.10
18177;DHT22;9213;50.858;3.964;2023-08-24T08:10:47;26.90;50.10
18177;DHT22;9213;50.858;3.964;2023-08-24T08:13:14;26.90;50.10
18177;DHT22;9213;50.858;3.964;2023-08-24T08:15:41;26.90;50.60
18177;DHT22;9213;50.858;3.964;2023-08-24T08:18:07;26.90;50.30
18177;DHT22;9213;50.858;3.964;2023-08-24T08:20:36;26.90;50.40
18177;DHT22;9213;50.858;3.964;2023-08-24T08:23:03;26.90;50.50
18177;DHT22;9213;50.858;3.964;2023-08-24T08:25:30;26.90;50.40
18177;DHT22;9213;50.858;3.964;2023-08-24T08:27:57;26.90;50.80
18177;DHT22;9213;50.858;3.964;2023-08-24T08:30:23;26.90;50.90
18177;DHT22;9213;50.858;3.964;2023-08-24T08:32:50;26.80;51.40
18177;DHT22;9213;50.858;3.964;2023-08-24T08:35:18;26.80;51.10
18177;DHT22;9213;50.858;3.964;2023-08-24T08:37:46;26.80;51.30
18177;DHT22;9213;50.858;3.964;2023-08-24T08:40:15;26.80;51.10
18177;DHT22;9213;50.858;3.964;2023-08-24T08:42:42;26.90;51.20
18177;DHT22;9213;50.858;3.964;2023-08-24T08:45:10;26.90;51.10
18177;DHT22;9213;50.858;3.964;2023-08-24T08:47:38;26.90;51.00
18177;DHT22;9213;50.858;3.964;2023-08-24T08:50:07;26.90;51.00
18177;DHT22;9213;50.858;3.964;2023-08-24T08:52:34;26.90;51.50
18177;DHT22;9213;50.858;3.964;2023-08-24T08:55:03;26.90;51.80
18177;DHT22;9213;50.858;3.964;2023-08-24T08:57:32;26.90;52.10
18177;DHT22;9213;50.858;3.964;2023-08-24T08:59:59;26.90;52.40
18177;DHT22;9213;50.858;3.964;2023-08-24T09:02:26;26.80;52.70
18177;DHT22;9213;50.858;3.964;2023-08-24T09:04:56;26.80;52.80
18177;DHT22;9213;50.858;3.964;2023-08-24T09:07:23;26.80;53.20
18177;DHT22;9213;50.858;3.964;2023-08-24T09:09:51;26.80;53.60
18177;DHT22;9213;50.858;3.964;2023-08-24T09:12:19;26.70;53.80
18177;DHT22;9213;50.858;3.964;2023-08-24T09:14:46;26.60;53.90
18177;DHT22;9213;50.858;3.964;2023-08-24T09:17:20;26.60;53.90
18177;DHT22;9213;50.858;3.964;2023-08-24T09:19:49;26.50;54.40
18177;DHT22;9213;50.858;3.964;2023-08-24T09:22:16;26.30;55.60
18177;DHT22;9213;50.858;3.964;2023-08-24T09:24:43;26.20;55.50
18177;DHT22;9213;50.858;3.964;2023-08-24T09:27:15;25.90;55.40
18177;DHT22;9213;50.858;3.964;2023-08-24T09:29:47;25.80;55.90
18177;DHT22;9213;50.858;3.964;2023-08-24T09:32:17;25.60;56.50
18177;DHT22;9213;50.858;3.964;2023-08-24T09:34:47;25.50;57.00
18177;DHT22;9213;50.858;3.964;2023-08-24T09:37:14;25.30;57.50
18177;DHT22;9213;50.858;3.964;2023-08-24T09:39:41;25.30;57.70
18177;DHT22;9213;50.858;3.964;2023-08-24T09:42:08;25.20;57.90
18177;DHT22;9213;50.858;3.964;2023-08-24T09:44:35;25.10;58.00
18177;DHT22;9213;50.858;3.964;2023-08-24T09:47:09;25.10;58.20
18177;DHT22;9213;50.858;3.964;2023-08-24T09:49:36;25.10;58.40
18177;DHT22;9213;50.858;3.964;2023-08-24T09:52:06;25.00;58.50
18177;DHT22;9213;50.858;3.964;2023-08-24T09:54:36;24.90;58.60
18177;DHT22;9213;50.858;3.964;2023-08-24T09:57:06;24.80;59.00
18177;DHT22;9213;50.858;3.964;2023-08-24T09:59:35;24.80;59.20
18177;DHT22;9213;50.858;3.964;2023-08-24T10:02:14;24.70;59.30
18177;DHT22;9213;50.858;3.964;2023-08-24T10:04:42;24.70;59.50
18177;DHT22;9213;50.858;3.964;2023-08-24T10:07:11;24.60;59.60
18177;DHT22;9213;50.858;3.964;2023-08-24T10:09:45;24.50;60.00
18177;DHT22;9213;50.858;3.964;2023-08-24T10:12:15;24.50;60.60
18177;DHT22;9213;50.858;3.964;2023-08-24T10:14:53;24.50;60.70
18177;DHT22;9213;50.858;3.964;2023-08-24T10:17:24;24.50;61.00
18177;DHT22;9213;50.858;3.964;2023-08-24T10:19:52;24.40;61.00
18177;DHT22;9213;50.858;3.964;2023-08-24T10:22:19;24.40;61.60
18177;DHT22;9213;50.858;3.964;2023-08-24T10:24:47;24.40;61.70
18177;DHT22;9213;50.858;3.964;2023-08-24T10:27:15;24.50;61.90
18177;DHT22;9213;50.858;3.964;2023-08-24T10:29:43;24.60;61.30
18177;DHT22;9213;50.858;3.964;2023-08-24T10:32:10;24.70;61.30
18177;DHT22;9213;50.858;3.964;2023-08-24T10:34:39;24.80;61.60
18177;DHT22;9213;50.858;3.964;2023-08-24T10:37:09;25.10;61.50
18177;DHT22;9213;50.858;3.964;2023-08-24T10:39:37;25.20;61.30
18177;DHT22;9213;50.858;3.964;2023-08-24T10:42:05;25.40;60.50
18177;DHT22;9213;50.858;3.964;2023-08-24T10:44:37;25.60;59.90
18177;DHT22;9213;50.858;3.964;2023-08-24T10:47:11;25.80;59.20
18177;DHT22;9213;50.858;3.964;2023-08-24T10:49:40;26.10;58.60
18177;DHT22;9213;50.858;3.964;2023-08-24T10:52:19;26.30;57.90
18177;DHT22;9213;50.858;3.964;2023-08-24T10:54:47;26.50;57.50
18177;DHT22;9213;50.858;3.964;2023-08-24T10:57:19;26.60;56.80
18177;DHT22;9213;50.858;3.964;2023-08-24T10:59:57;26.80;55.80
18177;DHT22;9213;50.858;3.964;2023-08-24T11:02:25;26.90;55.60
18177;DHT22;9213;50.858;3.964;2023-08-24T11:05:06;26.90;55.20
18177;DHT22;9213;50.858;3.964;2023-08-24T11:07:34;27.00;55.50
18177;DHT22;9213;50.858;3.964;2023-08-24T11:10:11;26.90;54.50
18177;DHT22;9213;50.858;3.964;2023-08-24T11:13:07;26.90;54.80
18177;DHT22;9213;50.858;3.964;2023-08-24T11:15:37;26.90;54.60
18177;DHT22;9213;50.858;3.964;2023-08-24T11:18:21;26.80;54.50
18177;DHT22;9213;50.858;3.964;2023-08-24T11:20:52;26.90;54.80
18177;DHT22;9213;50.858;3.964;2023-08-24T11:23:20;26.90;55.70
18177;DHT22;9213;50.858;3.964;2023-08-24T11:25:48;26.90;55.00
18177;DHT22;9213;50.858;3.964;2023-08-24T11:28:17;27.00;55.20
18177;DHT22;9213;50.858;3.964;2023-08-24T11:30:46;27.00;55.00
18177;DHT22;9213;50.858;3.964;2023-08-24T11:33:13;27.00;54.30
18177;DHT22;9213;50.858;3.964;2023-08-24T11:35:42;27.10;54.10
18177;DHT22;9213;50.858;3.964;2023-08-24T11:38:11;27.00;53.80
18177;DHT22;9213;50.858;3.964;2023-08-24T11:40:38;26.90;53.30
18177;DHT22;9213;50.858;3.964;2023-08-24T11:43:06;26.80;53.60
18177;DHT22;9213;50.858;3.964;2023-08-24T11:45:34;26.60;54.10
18177;DHT22;9213;50.858;3.964;2023-08-24T11:48:02;26.40;54.70
18177;DHT22;9213;50.858;3.964;2023-08-24T11:50:31;26.20;55.30
18177;DHT22;9213;50.858;3.964;2023-08-24T11:52:59;26.00;56.10
18177;DHT22;9213;50.858;3.964;2023-08-24T11:55:28;25.80;56.30
18177;DHT22;9213;50.858;3.964;2023-08-24T11:57:55;25.80;57.50
18177;DHT22;9213;50.858;3.964;2023-08-24T12:00:22;25.60;57.30
18177;DHT22;9213;50.858;3.964;2023-08-24T12:02:50;25.50;57.70
18177;DHT22;9213;50.858;3.964;2023-08-24T12:05:21;25.40;58.10
18177;DHT22;9213;50.858;3.964;2023-08-24T12:07:48;25.30;58.50
18177;DHT22;9213;50.858;3.964;2023-08-24T12:10:15;25.30;58.80
18177;DHT22;9213;50.858;3.964;2023-08-24T12:12:44;25.20;59.10
18177;DHT22;9213;50.858;3.964;2023-08-24T12:15:16;25.20;59.20
18177;DHT22;9213;50.858;3.964;2023-08-24T12:17:45;25.20;59.20
18177;DHT22;9213;50.858;3.964;2023-08-24T12:20:20;25.20;59.20
18177;DHT22;9213;50.858;3.964;2023-08-24T12:22:52;25.10;59.10
18177;DHT22;9213;50.858;3.964;2023-08-24T12:25:22;25.10;59.10
18177;DHT22;9213;50.858;3.964;2023-08-24T12:27:51;25.10;59.30
18177;DHT22;9213;50.858;3.964;2023-08-24T12:30:19;25.10;59.60
18177;DHT22;9213;50.858;3.964;2023-08-24T12:32:46;25.10;59.40
18177;DHT22;9213;50.858;3.964;2023-08-24T12:35:16;25.10;59.30
18177;DHT22;9213;50.858;3.964;2023-08-24T12:37:43;25.20;59.30
18177;DHT22;9213;50.858;3.964;2023-08-24T12:40:10;25.20;59.10
18177;DHT22;9213;50.858;3.964;2023-08-24T12:42:37;25.20;58.90
18177;DHT22;9213;50.858;3.964;2023-08-24T12:45:07;25.20;58.50
18177;DHT22;9213;50.858;3.964;2023-08-24T12:47:34;25.20;58.80
18177;DHT22;9213;50.858;3.964;2023-08-24T12:50:05;25.20;58.90
18177;DHT22;9213;50.858;3.964;2023-08-24T12:52:32;25.20;58.90
18177;DHT22;9213;50.858;3.964;2023-08-24T12:55:00;25.20;59.00
18177;DHT22;9213;50.858;3.964;2023-08-24T12:57:29;25.20;59.00
18177;DHT22;9213;50.858;3.964;2023-08-24T12:59:56;25.20;59.00
18177;DHT22;9213;50.858;3.964;2023-08-24T13:02:25;25.30;59.20
18177;DHT22;9213;50.858;3.964;2023-08-24T13:04:52;25.30;58.90
18177;DHT22;9213;50.858;3.964;2023-08-24T13:07:20;25.30;58.70
18177;DHT22;9213;50.858;3.964;2023-08-24T13:09:47;25.30;58.50
18177;DHT22;9213;50.858;3.964;2023-08-24T13:12:14;25.30;58.30
18177;DHT22;9213;50.858;3.964;2023-08-24T13:14:41;25.30;57.80
18177;DHT22;9213;50.858;3.964;2023-08-24T13:17:08;25.30;57.50
18177;DHT22;9213;50.858;3.964;2023-08-24T13:19:37;25.30;57.50
18177;DHT22;9213;50.858;3.964;2023-08-24T13:22:04;25.30;57.70
18177;DHT22;9213;50.858;3.964;2023-08-24T13:24:31;25.30;57.60
18177;DHT22;9213;50.858;3.964;2023-08-24T13:26:58;25.30;57.40
18177;DHT22;9213;50.858;3.964;2023-08-24T13:29:25;25.30;57.60
18177;DHT22;9213;50.858;3.964;2023-08-24T13:31:52;25.30;57.40
18177;DHT22;9213;50.858;3.964;2023-08-24T13:34:19;25.40;57.70
18177;DHT22;9213;50.858;3.964;2023-08-24T13:36:47;25.40;56.90
18177;DHT22;9213;50.858;3.964;2023-08-24T13:39:14;25.40;57.00
18177;DHT22;9213;50.858;3.964;2023-08-24T13:41:41;25.50;57.00
18177;DHT22;9213;50.858;3.964;2023-08-24T13:44:08;25.50;57.10
18177;DHT22;9213;50.858;3.964;2023-08-24T13:46:35;25.60;57.00
18177;DHT22;9213;50.858;3.964;2023-08-24T13:49:02;25.60;56.70
18177;DHT22;9213;50.858;3.964;2023-08-24T13:51:29;25.70;56.20
18177;DHT22;9213;50.858;3.964;2023-08-24T13:53:57;25.90;56.20
18177;DHT22;9213;50.858;3.964;2023-08-24T13:56:24;26.10;56.20
18177;DHT22;9213;50.858;3.964;2023-08-24T13:58:51;26.20;55.60
18177;DHT22;9213;50.858;3.964;2023-08-24T14:01:18;26.30;55.20
18177;DHT22;9213;50.858;3.964;2023-08-24T14:03:45;26.40;55.00
18177;DHT22;9213;50.858;3.964;2023-08-24T14:06:11;26.50;54.90
18177;DHT22;9213;50.858;3.964;2023-08-24T14:08:40;26.60;54.30
18177;DHT22;9213;50.858;3.964;2023-08-24T14:11:08;26.80;53.90
18177;DHT22;9213;50.858;3.964;2023-08-24T14:13:35;26.90;53.70
18177;DHT22;9213;50.858;3.964;2023-08-24T14:16:02;27.00;53.90
18177;DHT22;9213;50.858;3.964;2023-08-24T14:18:29;27.10;53.20
18177;DHT22;9213;50.858;3.964;2023-08-24T14:20:56;27.10;53.60
18177;DHT22;9213;50.858;3.964;2023-08-24T14:23:23;27.10;52.10
18177;DHT22;9213;50.858;3.964;2023-08-24T14:25:50;27.20;52.10
18177;DHT22;9213;50.858;3.964;2023-08-24T14:28:20;27.10;51.90
18177;DHT22;9213;50.858;3.964;2023-08-24T14:30:47;27.00;52.50
18177;DHT22;9213;50.858;3.964;2023-08-24T14:33:14;27.00;52.90
18177;DHT22;9213;50.858;3.964;2023-08-24T14:35:41;27.00;52.90
18177;DHT22;9213;50.858;3.964;2023-08-24T14:38:08;26.90;52.30
18177;DHT22;9213;50.858;3.964;2023-08-24T14:40:35;26.90;52.70
18177;DHT22;9213;50.858;3.964;2023-08-24T14:43:02;26.90;52.60
18177;DHT22;9213;50.858;3.964;2023-08-24T14:45:30;26.90;52.70
18177;DHT22;9213;50.858;3.964;2023-08-24T14:47:57;26.90;52.70
18177;DHT22;9213;50.858;3.964;2023-08-24T14:50:24;26.90;52.60
18177;DHT22;9213;50.858;3.964;2023-08-24T14:52:51;26.80;52.70
18177;DHT22;9213;50.858;3.964;2023-08-24T14:55:18;26.80;53.00
18177;DHT22;9213;50.858;3.964;2023-08-24T14:57:45;26.80;52.90
18177;DHT22;9213;50.858;3.964;2023-08-24T15:00:13;26.70;53.80
18177;DHT22;9213;50.858;3.964;2023-08-24T15:02:41;26.60;54.00
18177;DHT22;9213;50.858;3.964;2023-08-24T15:05:08;26.60;54.40
18177;DHT22;9213;50.858;3.964;2023-08-24T15:07:35;26.60;54.60
18177;DHT22;9213;50.858;3.964;2023-08-24T15:10:03;26.70;54.80
18177;DHT22;9213;50.858;3.964;2023-08-24T15:12:30;26.70;54.10
18177;DHT22;9213;50.858;3.964;2023-08-24T15:14:57;26.70;54.20
18177;DHT22;9213;50.858;3.964;2023-08-24T15:17:24;26.80;54.50
18177;DHT22;9213;50.858;3.964;2023-08-24T15:19:54;26.90;54.20
18177;DHT22;9213;50.858;3.964;2023-08-24T15:22:21;27.00;54.10
18177;DHT22;9213;50.858;3.964;2023-08-24T15:24:48;27.00;53.80
18177;DHT22;9213;50.858;3.964;2023-08-24T15:27:15;27.10;53.80
18177;DHT22;9213;50.858;3.964;2023-08-24T15:29:44;27.20;53.60
18177;DHT22;9213;50.858;3.964;2023-08-24T15:32:11;27.40;53.20
18177;DHT22;9213;50.858;3.964;2023-08-24T15:34:39;27.50;53.00
18177;DHT22;9213;50.858;3.964;2023-08-24T15:37:07;27.70;52.40
18177;DHT22;9213;50.858;3.964;2023-08-24T15:39:36;27.90;51.70
18177;DHT22;9213;50.858;3.964;2023-08-24T15:42:04;28.00;51.40
18177;DHT22;9213;50.858;3.964;2023-08-24T15:44:31;28.00;51.20
18177;DHT22;9213;50.858;3.964;2023-08-24T15:46:58;28.10;51.10
18177;DHT22;9213;50.858;3.964;2023-08-24T15:49:25;28.10;50.60